sensor_id;sensor_type;location;lat;lon;timestamp;P1;durP1;ratioP1;P2;durP2;ratioP2
24273;SDS011;12392;42.678;23.380;2023-02-18T00:01:23;19.05;;;7.93;;
24273;SDS011;12392;42.678;23.380;2023-02-18T00:03:49;15.07;;;7.93;;
24273;SDS011;12392;42.678;23.380;2023-02-18T00:06:20;20.15;;;8.35;;
24273;SDS011;12392;42.678;23.380;2023-02-18T00:08:48;17.63;;;8.18;;
24273;SDS011;12392;42.678;23.380;2023-02-18T00:11:15;23.85;;;8.18;;
24273;SDS011;12392;42.678;23.380;2023-02-18T00:13:41;20.98;;;8.88;;
24273;SDS011;12392;42.678;23.380;2023-02-18T00:16:08;24.77;;;8.65;;
24273;SDS011;12392;42.678;23.380;2023-02-18T00:18:36;14.52;;;8.07;;
24273;SDS011;12392;42.678;23.380;2023-02-18T00:21:03;17.90;;;8.15;;
24273;SDS011;12392;42.678;23.380;2023-02-18T00:23:29;24.23;;;8.05;;
24273;SDS011;12392;42.678;23.380;2023-02-18T00:26:03;22.50;;;9.25;;
24273;SDS011;12392;42.678;23.380;2023-02-18T00:28:31;21.33;;;8.90;;
24273;SDS011;12392;42.678;23.380;2023-02-18T00:30:57;18.65;;;8.80;;
24273;SDS011;12392;42.678;23.380;2023-02-18T00:33:23;17.60;;;7.72;;
24273;SDS011;12392;42.678;23.380;2023-02-18T00:35:49;20.55;;;8.90;;
24273;SDS011;12392;42.678;23.380;2023-02-18T00:38:15;18.98;;;8.18;;
24273;SDS011;12392;42.678;23.380;2023-02-18T00:40:40;16.60;;;7.65;;
24273;SDS011;12392;42.678;23.380;2023-02-18T00:43:07;25.85;;;9.30;;
24273;SDS011;12392;42.678;23.380;2023-02-18T00:45:33;19.48;;;8.40;;
24273;SDS011;12392;42.678;23.380;2023-02-18T00:47:59;16.52;;;8.80;;
24273;SDS011;12392;42.678;23.380;2023-02-18T00:50:24;22.33;;;9.40;;
24273;SDS011;12392;42.678;23.380;2023-02-18T00:52:50;15.77;;;7.30;;
24273;SDS011;12392;42.678;23.380;2023-02-18T00:55:15;21.75;;;8.02;;
24273;SDS011;12392;42.678;23.380;2023-02-18T00:57:41;21.05;;;8.55;;
24273;SDS011;12392;42.678;23.380;2023-02-18T01:00:07;18.77;;;8.20;;
24273;SDS011;12392;42.678;23.380;2023-02-18T01:02:33;16.85;;;7.57;;
24273;SDS011;12392;42.678;23.380;2023-02-18T01:04:59;15.75;;;7.70;;
24273;SDS011;12392;42.678;23.380;2023-02-18T01:07:25;16.58;;;7.65;;
24273;SDS011;12392;42.678;23.380;2023-02-18T01:09:51;20.73;;;8.57;;
24273;SDS011;12392;42.678;23.380;2023-02-18T01:12:17;18.67;;;7.32;;
24273;SDS011;12392;42.678;23.380;2023-02-18T01:14:43;20.83;;;8.05;;
24273;SDS011;12392;42.678;23.380;2023-02-18T01:17:09;19.05;;;8.32;;
24273;SDS011;12392;42.678;23.380;2023-02-18T01:19:34;17.27;;;7.38;;
24273;SDS011;12392;42.678;23.380;2023-02-18T01:22:00;15.35;;;7.00;;
24273;SDS011;12392;42.678;23.380;2023-02-18T01:24:26;18.83;;;7.15;;
24273;SDS011;12392;42.678;23.380;2023-02-18T01:26:52;12.30;;;6.90;;
24273;SDS011;12392;42.678;23.380;2023-02-18T01:29:17;17.35;;;7.53;;
24273;SDS011;12392;42.678;23.380;2023-02-18T01:31:43;16.17;;;7.40;;
24273;SDS011;12392;42.678;23.380;2023-02-18T01:34:09;15.98;;;6.45;;
24273;SDS011;12392;42.678;23.380;2023-02-18T01:36:34;20.48;;;7.50;;
24273;SDS011;12392;42.678;23.380;2023-02-18T01:39:00;19.40;;;7.60;;
24273;SDS011;12392;42.678;23.380;2023-02-18T01:41:26;20.25;;;7.18;;
24273;SDS011;12392;42.678;23.380;2023-02-18T01:46:40;22.50;;;8.20;;
24273;SDS011;12392;42.678;23.380;2023-02-18T01:49:06;37.45;;;15.23;;
24273;SDS011;12392;42.678;23.380;2023-02-18T01:51:39;35.30;;;12.05;;
24273;SDS011;12392;42.678;23.380;2023-02-18T01:57:04;38.33;;;14.75;;
24273;SDS011;12392;42.678;23.380;2023-02-18T01:59:45;37.10;;;14.27;;
24273;SDS011;12392;42.678;23.380;2023-02-18T02:02:17;38.08;;;13.68;;
24273;SDS011;12392;42.678;23.380;2023-02-18T02:04:44;37.95;;;14.98;;
24273;SDS011;12392;42.678;23.380;2023-02-18T02:07:10;33.50;;;14.55;;
24273;SDS011;12392;42.678;23.380;2023-02-18T02:09:36;34.40;;;14.18;;
24273;SDS011;12392;42.678;23.380;2023-02-18T02:23:27;21.73;;;9.65;;
24273;SDS011;12392;42.678;23.380;2023-02-18T02:40:24;16.42;;;7.50;;
24273;SDS011;12392;42.678;23.380;2023-02-18T02:51:05;18.92;;;6.90;;
24273;SDS011;12392;42.678;23.380;2023-02-18T02:53:53;18.27;;;7.70;;
24273;SDS011;12392;42.678;23.380;2023-02-18T02:56:23;21.65;;;7.00;;
24273;SDS011;12392;42.678;23.380;2023-02-18T02:58:56;17.75;;;7.20;;
24273;SDS011;12392;42.678;23.380;2023-02-18T03:10:10;15.27;;;5.95;;
24273;SDS011;12392;42.678;23.380;2023-02-18T03:13:04;81.28;;;29.08;;
24273;SDS011;12392;42.678;23.380;2023-02-18T03:21:38;92.47;;;33.17;;
24273;SDS011;12392;42.678;23.380;2023-02-18T03:26:48;87.97;;;33.28;;
24273;SDS011;12392;42.678;23.380;2023-02-18T03:29:17;113.25;;;41.40;;
24273;SDS011;12392;42.678;23.380;2023-02-18T03:31:44;101.55;;;40.72;;
24273;SDS011;12392;42.678;23.380;2023-02-18T03:34:14;100.03;;;41.42;;
24273;SDS011;12392;42.678;23.380;2023-02-18T03:36:42;91.95;;;39.22;;
24273;SDS011;12392;42.678;23.380;2023-02-18T03:39:15;109.35;;;40.85;;
24273;SDS011;12392;42.678;23.380;2023-02-18T03:41:42;80.97;;;34.70;;
24273;SDS011;12392;42.678;23.380;2023-02-18T03:44:08;68.90;;;25.98;;
24273;SDS011;12392;42.678;23.380;2023-02-18T03:46:36;60.28;;;23.90;;
24273;SDS011;12392;42.678;23.380;2023-02-18T03:49:03;60.00;;;22.83;;
24273;SDS011;12392;42.678;23.380;2023-02-18T03:51:29;60.30;;;23.88;;
24273;SDS011;12392;42.678;23.380;2023-02-18T03:53:54;62.15;;;26.92;;
24273;SDS011;12392;42.678;23.380;2023-02-18T03:56:20;65.20;;;25.25;;
24273;SDS011;12392;42.678;23.380;2023-02-18T03:58:46;56.90;;;22.67;;
24273;SDS011;12392;42.678;23.380;2023-02-18T04:01:12;63.30;;;22.63;;
24273;SDS011;12392;42.678;23.380;2023-02-18T04:03:38;56.58;;;22.08;;
24273;SDS011;12392;42.678;23.380;2023-02-18T04:06:04;63.65;;;22.38;;
24273;SDS011;12392;42.678;23.380;2023-02-18T04:08:30;49.85;;;23.10;;
24273;SDS011;12392;42.678;23.380;2023-02-18T04:10:55;55.10;;;21.73;;
24273;SDS011;12392;42.678;23.380;2023-02-18T04:13:21;49.47;;;21.60;;
24273;SDS011;12392;42.678;23.380;2023-02-18T04:15:50;50.40;;;19.38;;
24273;SDS011;12392;42.678;23.380;2023-02-18T04:18:16;46.72;;;18.65;;
24273;SDS011;12392;42.678;23.380;2023-02-18T04:20:42;45.00;;;17.40;;
24273;SDS011;12392;42.678;23.380;2023-02-18T04:23:08;45.67;;;17.75;;
24273;SDS011;12392;42.678;23.380;2023-02-18T04:25:33;38.75;;;16.48;;
24273;SDS011;12392;42.678;23.380;2023-02-18T04:27:59;33.08;;;12.65;;
24273;SDS011;12392;42.678;23.380;2023-02-18T04:30:25;32.53;;;10.88;;
24273;SDS011;12392;42.678;23.380;2023-02-18T04:32:51;44.13;;;17.75;;
24273;SDS011;12392;42.678;23.380;2023-02-18T04:35:16;38.03;;;13.95;;
24273;SDS011;12392;42.678;23.380;2023-02-18T04:37:42;38.50;;;16.92;;
24273;SDS011;12392;42.678;23.380;2023-02-18T04:40:08;44.35;;;19.35;;
24273;SDS011;12392;42.678;23.380;2023-02-18T04:42:35;35.85;;;17.05;;
24273;SDS011;12392;42.678;23.380;2023-02-18T04:45:00;24.85;;;10.82;;
24273;SDS011;12392;42.678;23.380;2023-02-18T04:47:26;35.05;;;13.02;;
24273;SDS011;12392;42.678;23.380;2023-02-18T04:49:52;21.80;;;8.50;;
24273;SDS011;12392;42.678;23.380;2023-02-18T04:52:18;28.15;;;12.50;;
24273;SDS011;12392;42.678;23.380;2023-02-18T04:54:43;27.98;;;12.38;;
24273;SDS011;12392;42.678;23.380;2023-02-18T04:57:09;27.17;;;13.07;;
24273;SDS011;12392;42.678;23.380;2023-02-18T04:59:35;26.58;;;10.60;;
24273;SDS011;12392;42.678;23.380;2023-02-18T05:02:00;22.52;;;10.27;;
24273;SDS011;12392;42.678;23.380;2023-02-18T05:04:26;27.38;;;13.55;;
24273;SDS011;12392;42.678;23.380;2023-02-18T05:06:52;34.47;;;14.82;;
24273;SDS011;12392;42.678;23.380;2023-02-18T05:09:17;28.63;;;12.40;;
24273;SDS011;12392;42.678;23.380;2023-02-18T05:11:44;31.30;;;13.27;;
24273;SDS011;12392;42.678;23.380;2023-02-18T05:14:11;34.25;;;13.57;;
24273;SDS011;12392;42.678;23.380;2023-02-18T05:16:37;30.08;;;13.82;;
24273;SDS011;12392;42.678;23.380;2023-02-18T05:19:03;36.97;;;14.40;;
24273;SDS011;12392;42.678;23.380;2023-02-18T05:21:29;28.48;;;12.95;;
24273;SDS011;12392;42.678;23.380;2023-02-18T05:23:55;29.70;;;12.13;;
24273;SDS011;12392;42.678;23.380;2023-02-18T05:26:20;21.77;;;8.68;;
24273;SDS011;12392;42.678;23.380;2023-02-18T05:28:46;18.38;;;8.90;;
24273;SDS011;12392;42.678;23.380;2023-02-18T05:31:12;16.58;;;8.85;;
24273;SDS011;12392;42.678;23.380;2023-02-18T05:33:38;17.23;;;8.32;;
24273;SDS011;12392;42.678;23.380;2023-02-18T05:36:03;15.98;;;8.40;;
24273;SDS011;12392;42.678;23.380;2023-02-18T05:38:29;19.98;;;7.80;;
24273;SDS011;12392;42.678;23.380;2023-02-18T05:40:55;19.52;;;8.30;;
24273;SDS011;12392;42.678;23.380;2023-02-18T05:43:21;20.70;;;7.95;;
24273;SDS011;12392;42.678;23.380;2023-02-18T05:45:46;16.45;;;7.53;;
24273;SDS011;12392;42.678;23.380;2023-02-18T05:48:12;17.23;;;8.32;;
24273;SDS011;12392;42.678;23.380;2023-02-18T05:50:38;19.23;;;8.27;;
24273;SDS011;12392;42.678;23.380;2023-02-18T05:53:04;20.83;;;9.23;;
24273;SDS011;12392;42.678;23.380;2023-02-18T05:55:30;20.30;;;8.48;;
24273;SDS011;12392;42.678;23.380;2023-02-18T05:57:55;22.35;;;8.70;;
24273;SDS011;12392;42.678;23.380;2023-02-18T06:00:21;19.48;;;9.18;;
24273;SDS011;12392;42.678;23.380;2023-02-18T06:02:47;21.02;;;9.40;;
24273;SDS011;12392;42.678;23.380;2023-02-18T06:05:13;29.10;;;8.02;;
24273;SDS011;12392;42.678;23.380;2023-02-18T06:07:38;21.90;;;7.63;;
24273;SDS011;12392;42.678;23.380;2023-02-18T06:10:04;16.00;;;8.45;;
24273;SDS011;12392;42.678;23.380;2023-02-18T06:12:32;22.50;;;8.75;;
24273;SDS011;12392;42.678;23.380;2023-02-18T06:14:57;17.70;;;8.13;;
24273;SDS011;12392;42.678;23.380;2023-02-18T06:17:23;20.45;;;7.65;;
24273;SDS011;12392;42.678;23.380;2023-02-18T06:19:49;17.05;;;8.88;;
24273;SDS011;12392;42.678;23.380;2023-02-18T06:22:14;16.13;;;7.80;;
24273;SDS011;12392;42.678;23.380;2023-02-18T06:24:40;17.65;;;8.07;;
24273;SDS011;12392;42.678;23.380;2023-02-18T06:27:06;27.48;;;9.40;;
24273;SDS011;12392;42.678;23.380;2023-02-18T06:29:32;20.35;;;9.07;;
24273;SDS011;12392;42.678;23.380;2023-02-18T06:32:00;19.90;;;8.73;;
24273;SDS011;12392;42.678;23.380;2023-02-18T06:34:25;25.23;;;9.52;;
24273;SDS011;12392;42.678;23.380;2023-02-18T06:36:51;20.17;;;10.07;;
24273;SDS011;12392;42.678;23.380;2023-02-18T06:39:17;20.63;;;9.75;;
24273;SDS011;12392;42.678;23.380;2023-02-18T06:41:43;21.20;;;9.60;;
24273;SDS011;12392;42.678;23.380;2023-02-18T06:44:09;19.83;;;9.20;;
24273;SDS011;12392;42.678;23.380;2023-02-18T06:46:35;34.60;;;10.02;;
24273;SDS011;12392;42.678;23.380;2023-02-18T06:49:01;25.83;;;10.18;;
24273;SDS011;12392;42.678;23.380;2023-02-18T06:51:27;22.85;;;10.15;;
24273;SDS011;12392;42.678;23.380;2023-02-18T06:53:54;19.35;;;9.88;;
24273;SDS011;12392;42.678;23.380;2023-02-18T06:56:20;21.92;;;10.50;;
24273;SDS011;12392;42.678;23.380;2023-02-18T06:58:45;30.40;;;12.50;;
24273;SDS011;12392;42.678;23.380;2023-02-18T07:01:11;26.65;;;13.70;;
24273;SDS011;12392;42.678;23.380;2023-02-18T07:03:38;27.55;;;11.98;;
24273;SDS011;12392;42.678;23.380;2023-02-18T07:06:04;32.60;;;13.35;;
24273;SDS011;12392;42.678;23.380;2023-02-18T07:08:29;31.20;;;13.75;;
24273;SDS011;12392;42.678;23.380;2023-02-18T07:10:57;23.77;;;12.15;;
24273;SDS011;12392;42.678;23.380;2023-02-18T07:13:22;29.30;;;13.73;;
24273;SDS011;12392;42.678;23.380;2023-02-18T07:15:48;29.13;;;11.70;;
24273;SDS011;12392;42.678;23.380;2023-02-18T07:18:14;25.67;;;12.35;;
24273;SDS011;12392;42.678;23.380;2023-02-18T07:20:39;22.17;;;9.15;;
24273;SDS011;12392;42.678;23.380;2023-02-18T07:23:05;20.92;;;9.60;;
24273;SDS011;12392;42.678;23.380;2023-02-18T07:25:31;17.35;;;8.73;;
24273;SDS011;12392;42.678;23.380;2023-02-18T07:27:56;20.17;;;9.80;;
24273;SDS011;12392;42.678;23.380;2023-02-18T07:30:22;35.78;;;11.90;;
24273;SDS011;12392;42.678;23.380;2023-02-18T07:32:47;26.10;;;10.82;;
24273;SDS011;12392;42.678;23.380;2023-02-18T07:35:13;18.38;;;9.25;;
24273;SDS011;12392;42.678;23.380;2023-02-18T07:37:44;19.05;;;9.70;;
24273;SDS011;12392;42.678;23.380;2023-02-18T07:40:12;26.42;;;10.82;;
24273;SDS011;12392;42.678;23.380;2023-02-18T07:42:38;22.42;;;9.32;;
24273;SDS011;12392;42.678;23.380;2023-02-18T07:45:04;19.00;;;9.38;;
24273;SDS011;12392;42.678;23.380;2023-02-18T07:47:30;20.08;;;10.10;;
24273;SDS011;12392;42.678;23.380;2023-02-18T07:49:56;22.52;;;10.02;;
24273;SDS011;12392;42.678;23.380;2023-02-18T07:52:21;21.40;;;9.43;;
24273;SDS011;12392;42.678;23.380;2023-02-18T07:54:47;24.13;;;10.35;;
24273;SDS011;12392;42.678;23.380;2023-02-18T07:57:13;17.42;;;9.32;;
24273;SDS011;12392;42.678;23.380;2023-02-18T07:59:39;21.02;;;9.90;;
24273;SDS011;12392;42.678;23.380;2023-02-18T08:02:05;20.02;;;9.77;;
24273;SDS011;12392;42.678;23.380;2023-02-18T08:04:31;23.30;;;9.38;;
24273;SDS011;12392;42.678;23.380;2023-02-18T08:06:57;18.60;;;8.70;;
24273;SDS011;12392;42.678;23.380;2023-02-18T08:09:23;18.67;;;9.07;;
24273;SDS011;12392;42.678;23.380;2023-02-18T08:11:49;15.02;;;8.60;;
24273;SDS011;12392;42.678;23.380;2023-02-18T08:14:14;20.50;;;8.70;;
24273;SDS011;12392;42.678;23.380;2023-02-18T08:16:40;23.80;;;7.72;;
24273;SDS011;12392;42.678;23.380;2023-02-18T08:19:05;15.55;;;8.07;;
24273;SDS011;12392;42.678;23.380;2023-02-18T08:21:32;16.13;;;8.35;;
24273;SDS011;12392;42.678;23.380;2023-02-18T08:23:58;21.50;;;8.77;;
24273;SDS011;12392;42.678;23.380;2023-02-18T08:26:24;20.52;;;8.45;;
24273;SDS011;12392;42.678;23.380;2023-02-18T08:28:49;20.27;;;9.00;;
24273;SDS011;12392;42.678;23.380;2023-02-18T08:31:16;16.25;;;7.55;;
24273;SDS011;12392;42.678;23.380;2023-02-18T08:33:43;19.75;;;8.30;;
24273;SDS011;12392;42.678;23.380;2023-02-18T08:36:09;18.77;;;8.50;;
24273;SDS011;12392;42.678;23.380;2023-02-18T08:38:34;18.27;;;8.23;;
24273;SDS011;12392;42.678;23.380;2023-02-18T08:41:01;19.20;;;8.32;;
24273;SDS011;12392;42.678;23.380;2023-02-18T08:43:28;18.35;;;8.93;;
24273;SDS011;12392;42.678;23.380;2023-02-18T08:45:53;18.77;;;9.23;;
24273;SDS011;12392;42.678;23.380;2023-02-18T08:48:19;21.95;;;9.05;;
24273;SDS011;12392;42.678;23.380;2023-02-18T08:50:45;17.88;;;8.07;;
24273;SDS011;12392;42.678;23.380;2023-02-18T08:53:10;24.13;;;7.82;;
24273;SDS011;12392;42.678;23.380;2023-02-18T08:55:38;19.00;;;8.43;;
24273;SDS011;12392;42.678;23.380;2023-02-18T08:58:04;24.58;;;8.82;;
24273;SDS011;12392;42.678;23.380;2023-02-18T09:00:31;13.45;;;7.40;;
24273;SDS011;12392;42.678;23.380;2023-02-18T09:02:57;17.58;;;8.80;;
24273;SDS011;12392;42.678;23.380;2023-02-18T09:05:23;17.85;;;8.38;;
24273;SDS011;12392;42.678;23.380;2023-02-18T09:07:49;22.63;;;8.65;;
24273;SDS011;12392;42.678;23.380;2023-02-18T09:10:14;20.63;;;8.68;;
24273;SDS011;12392;42.678;23.380;2023-02-18T09:12:40;26.23;;;9.25;;
24273;SDS011;12392;42.678;23.380;2023-02-18T09:15:06;24.35;;;8.70;;
24273;SDS011;12392;42.678;23.380;2023-02-18T09:17:32;18.27;;;8.32;;
24273;SDS011;12392;42.678;23.380;2023-02-18T09:19:58;20.35;;;7.65;;
24273;SDS011;12392;42.678;23.380;2023-02-18T09:22:23;23.13;;;9.70;;
24273;SDS011;12392;42.678;23.380;2023-02-18T09:24:49;26.13;;;9.75;;
24273;SDS011;12392;42.678;23.380;2023-02-18T09:27:15;21.55;;;8.90;;
24273;SDS011;12392;42.678;23.380;2023-02-18T09:29:40;15.68;;;7.72;;
24273;SDS011;12392;42.678;23.380;2023-02-18T09:32:07;17.35;;;8.32;;
24273;SDS011;12392;42.678;23.380;2023-02-18T09:34:33;18.85;;;9.50;;
24273;SDS011;12392;42.678;23.380;2023-02-18T09:36:59;22.30;;;8.40;;
24273;SDS011;12392;42.678;23.380;2023-02-18T09:39:25;22.15;;;8.98;;
24273;SDS011;12392;42.678;23.380;2023-02-18T09:41:51;22.33;;;8.65;;
24273;SDS011;12392;42.678;23.380;2023-02-18T09:44:23;20.83;;;8.98;;
24273;SDS011;12392;42.678;23.380;2023-02-18T09:47:30;19.05;;;8.98;;
24273;SDS011;12392;42.678;23.380;2023-02-18T09:49:55;25.13;;;10.52;;
24273;SDS011;12392;42.678;23.380;2023-02-18T09:52:25;27.33;;;10.15;;
24273;SDS011;12392;42.678;23.380;2023-02-18T09:54:54;30.80;;;11.02;;
24273;SDS011;12392;42.678;23.380;2023-02-18T10:00:00;18.75;;;8.88;;
24273;SDS011;12392;42.678;23.380;2023-02-18T10:02:30;25.25;;;10.15;;
24273;SDS011;12392;42.678;23.380;2023-02-18T10:04:56;19.17;;;9.48;;
24273;SDS011;12392;42.678;23.380;2023-02-18T10:07:24;22.40;;;9.35;;
24273;SDS011;12392;42.678;23.380;2023-02-18T10:10:01;19.42;;;8.95;;
24273;SDS011;12392;42.678;23.380;2023-02-18T10:12:35;19.42;;;9.40;;
24273;SDS011;12392;42.678;23.380;2023-02-18T10:15:02;22.02;;;8.60;;
24273;SDS011;12392;42.678;23.380;2023-02-18T10:17:29;25.83;;;8.75;;
24273;SDS011;12392;42.678;23.380;2023-02-18T10:19:55;20.58;;;8.50;;
24273;SDS011;12392;42.678;23.380;2023-02-18T10:22:23;17.73;;;9.63;;
24273;SDS011;12392;42.678;23.380;2023-02-18T10:27:29;18.45;;;10.15;;
24273;SDS011;12392;42.678;23.380;2023-02-18T10:29:59;17.90;;;9.40;;
24273;SDS011;12392;42.678;23.380;2023-02-18T10:32:39;17.38;;;8.77;;
24273;SDS011;12392;42.678;23.380;2023-02-18T10:35:16;21.55;;;8.68;;
24273;SDS011;12392;42.678;23.380;2023-02-18T10:40:32;18.20;;;8.50;;
24273;SDS011;12392;42.678;23.380;2023-02-18T10:43:23;17.15;;;8.95;;
24273;SDS011;12392;42.678;23.380;2023-02-18T10:51:31;21.10;;;8.38;;
24273;SDS011;12392;42.678;23.380;2023-02-18T10:53:58;21.23;;;8.68;;
24273;SDS011;12392;42.678;23.380;2023-02-18T10:56:36;13.00;;;6.82;;
24273;SDS011;12392;42.678;23.380;2023-02-18T10:59:09;13.32;;;6.68;;
24273;SDS011;12392;42.678;23.380;2023-02-18T11:01:36;13.15;;;6.50;;
24273;SDS011;12392;42.678;23.380;2023-02-18T11:04:22;12.18;;;5.32;;
24273;SDS011;12392;42.678;23.380;2023-02-18T11:06:51;9.90;;;5.15;;
24273;SDS011;12392;42.678;23.380;2023-02-18T11:09:27;12.25;;;4.30;;
24273;SDS011;12392;42.678;23.380;2023-02-18T11:12:04;3.78;;;2.63;;
24273;SDS011;12392;42.678;23.380;2023-02-18T11:17:38;13.23;;;6.38;;
24273;SDS011;12392;42.678;23.380;2023-02-18T11:22:48;7.07;;;4.07;;
24273;SDS011;12392;42.678;23.380;2023-02-18T11:25:52;6.07;;;3.90;;
24273;SDS011;12392;42.678;23.380;2023-02-18T11:30:42;4.57;;;3.13;;
24273;SDS011;12392;42.678;23.380;2023-02-18T11:33:19;5.80;;;3.00;;
24273;SDS011;12392;42.678;23.380;2023-02-18T11:35:56;7.50;;;3.05;;
24273;SDS011;12392;42.678;23.380;2023-02-18T11:38:24;4.25;;;2.58;;
24273;SDS011;12392;42.678;23.380;2023-02-18T11:40:56;5.03;;;2.53;;
24273;SDS011;12392;42.678;23.380;2023-02-18T11:43:28;3.72;;;2.30;;
24273;SDS011;12392;42.678;23.380;2023-02-18T11:46:13;8.13;;;2.80;;
24273;SDS011;12392;42.678;23.380;2023-02-18T11:48:40;4.80;;;2.45;;
24273;SDS011;12392;42.678;23.380;2023-02-18T11:51:20;4.50;;;2.00;;
24273;SDS011;12392;42.678;23.380;2023-02-18T11:54:20;8.23;;;2.63;;
24273;SDS011;12392;42.678;23.380;2023-02-18T11:56:58;5.93;;;2.88;;
24273;SDS011;12392;42.678;23.380;2023-02-18T11:59:34;5.65;;;2.90;;
24273;SDS011;12392;42.678;23.380;2023-02-18T12:04:40;5.78;;;3.30;;
24273;SDS011;12392;42.678;23.380;2023-02-18T12:07:22;5.35;;;2.60;;
24273;SDS011;12392;42.678;23.380;2023-02-18T12:10:32;7.20;;;2.78;;
24273;SDS011;12392;42.678;23.380;2023-02-18T12:13:16;5.18;;;2.95;;
24273;SDS011;12392;42.678;23.380;2023-02-18T12:16:27;6.57;;;2.95;;
24273;SDS011;12392;42.678;23.380;2023-02-18T12:19:35;5.57;;;2.95;;
24273;SDS011;12392;42.678;23.380;2023-02-18T12:27:48;4.10;;;2.92;;
24273;SDS011;12392;42.678;23.380;2023-02-18T12:30:33;8.23;;;3.17;;
24273;SDS011;12392;42.678;23.380;2023-02-18T12:41:04;7.15;;;3.35;;
24273;SDS011;12392;42.678;23.380;2023-02-18T12:46:17;6.15;;;2.78;;
24273;SDS011;12392;42.678;23.380;2023-02-18T12:51:30;4.82;;;3.20;;
24273;SDS011;12392;42.678;23.380;2023-02-18T13:01:51;5.00;;;2.53;;
24273;SDS011;12392;42.678;23.380;2023-02-18T13:04:46;2.92;;;2.60;;
24273;SDS011;12392;42.678;23.380;2023-02-18T13:21:14;4.97;;;2.55;;
24273;SDS011;12392;42.678;23.380;2023-02-18T13:26:30;6.63;;;2.80;;
24273;SDS011;12392;42.678;23.380;2023-02-18T13:29:08;4.30;;;2.60;;
24273;SDS011;12392;42.678;23.380;2023-02-18T13:34:50;4.25;;;2.70;;
24273;SDS011;12392;42.678;23.380;2023-02-18T13:40:13;3.53;;;2.42;;
24273;SDS011;12392;42.678;23.380;2023-02-18T13:42:50;6.60;;;2.67;;
24273;SDS011;12392;42.678;23.380;2023-02-18T13:45:24;4.30;;;2.60;;
24273;SDS011;12392;42.678;23.380;2023-02-18T13:47:52;3.65;;;2.50;;
24273;SDS011;12392;42.678;23.380;2023-02-18T13:52:47;7.65;;;3.08;;
24273;SDS011;12392;42.678;23.380;2023-02-18T13:55:17;5.45;;;2.60;;
24273;SDS011;12392;42.678;23.380;2023-02-18T13:57:48;3.25;;;2.00;;
24273;SDS011;12392;42.678;23.380;2023-02-18T14:00:19;4.82;;;2.70;;
24273;SDS011;12392;42.678;23.380;2023-02-18T14:02:57;7.70;;;2.30;;
24273;SDS011;12392;42.678;23.380;2023-02-18T14:05:24;6.07;;;2.22;;
24273;SDS011;12392;42.678;23.380;2023-02-18T14:08:12;5.82;;;2.80;;
24273;SDS011;12392;42.678;23.380;2023-02-18T14:10:39;4.15;;;2.50;;
24273;SDS011;12392;42.678;23.380;2023-02-18T14:19:35;4.93;;;1.98;;
24273;SDS011;12392;42.678;23.380;2023-02-18T14:24:59;6.13;;;2.55;;
24273;SDS011;12392;42.678;23.380;2023-02-18T14:27:32;5.82;;;2.53;;
24273;SDS011;12392;42.678;23.380;2023-02-18T14:32:42;5.63;;;2.17;;
24273;SDS011;12392;42.678;23.380;2023-02-18T14:40:54;7.72;;;2.42;;
24273;SDS011;12392;42.678;23.380;2023-02-18T14:46:41;8.00;;;2.67;;
24273;SDS011;12392;42.678;23.380;2023-02-18T14:49:12;5.72;;;2.70;;
24273;SDS011;12392;42.678;23.380;2023-02-18T14:52:00;6.45;;;2.72;;
24273;SDS011;12392;42.678;23.380;2023-02-18T14:54:27;5.18;;;2.75;;
24273;SDS011;12392;42.678;23.380;2023-02-18T14:59:19;5.43;;;2.63;;
24273;SDS011;12392;42.678;23.380;2023-02-18T15:01:46;5.07;;;3.00;;
24273;SDS011;12392;42.678;23.380;2023-02-18T15:04:13;5.78;;;2.60;;
24273;SDS011;12392;42.678;23.380;2023-02-18T15:06:39;6.90;;;3.15;;
24273;SDS011;12392;42.678;23.380;2023-02-18T15:09:18;7.07;;;3.10;;
24273;SDS011;12392;42.678;23.380;2023-02-18T15:11:56;6.78;;;3.25;;
24273;SDS011;12392;42.678;23.380;2023-02-18T15:16:58;9.32;;;3.05;;
24273;SDS011;12392;42.678;23.380;2023-02-18T15:19:25;6.55;;;2.97;;
24273;SDS011;12392;42.678;23.380;2023-02-18T15:21:54;4.55;;;2.53;;
24273;SDS011;12392;42.678;23.380;2023-02-18T15:26:57;5.63;;;2.05;;
24273;SDS011;12392;42.678;23.380;2023-02-18T15:29:34;5.00;;;2.53;;
24273;SDS011;12392;42.678;23.380;2023-02-18T15:32:00;9.20;;;2.50;;
24273;SDS011;12392;42.678;23.380;2023-02-18T15:34:58;9.02;;;2.95;;
24273;SDS011;12392;42.678;23.380;2023-02-18T15:37:26;6.03;;;2.70;;
24273;SDS011;12392;42.678;23.380;2023-02-18T15:39:52;7.60;;;2.83;;
24273;SDS011;12392;42.678;23.380;2023-02-18T15:42:28;5.57;;;2.90;;
24273;SDS011;12392;42.678;23.380;2023-02-18T15:45:01;7.15;;;2.80;;
24273;SDS011;12392;42.678;23.380;2023-02-18T15:47:29;4.35;;;2.42;;
24273;SDS011;12392;42.678;23.380;2023-02-18T15:49:58;7.03;;;3.08;;
24273;SDS011;12392;42.678;23.380;2023-02-18T15:52:26;5.38;;;2.83;;
24273;SDS011;12392;42.678;23.380;2023-02-18T15:54:54;8.15;;;3.42;;
24273;SDS011;12392;42.678;23.380;2023-02-18T15:57:22;7.88;;;4.00;;
24273;SDS011;12392;42.678;23.380;2023-02-18T16:00:13;6.10;;;3.08;;
24273;SDS011;12392;42.678;23.380;2023-02-18T16:02:48;5.78;;;3.28;;
24273;SDS011;12392;42.678;23.380;2023-02-18T16:05:38;6.25;;;3.05;;
24273;SDS011;12392;42.678;23.380;2023-02-18T16:08:25;6.00;;;3.38;;
24273;SDS011;12392;42.678;23.380;2023-02-18T16:10:55;10.73;;;3.63;;
24273;SDS011;12392;42.678;23.380;2023-02-18T16:13:29;8.25;;;3.10;;
24273;SDS011;12392;42.678;23.380;2023-02-18T16:15:55;7.32;;;3.78;;
24273;SDS011;12392;42.678;23.380;2023-02-18T16:18:23;10.82;;;3.75;;
24273;SDS011;12392;42.678;23.380;2023-02-18T16:21:20;5.28;;;3.03;;
24273;SDS011;12392;42.678;23.380;2023-02-18T16:26:26;9.32;;;3.40;;
24273;SDS011;12392;42.678;23.380;2023-02-18T16:28:54;8.07;;;3.60;;
24273;SDS011;12392;42.678;23.380;2023-02-18T16:31:26;9.25;;;3.67;;
24273;SDS011;12392;42.678;23.380;2023-02-18T16:33:52;9.25;;;3.55;;
24273;SDS011;12392;42.678;23.380;2023-02-18T16:36:18;10.55;;;3.65;;
24273;SDS011;12392;42.678;23.380;2023-02-18T16:38:44;12.15;;;3.75;;
24273;SDS011;12392;42.678;23.380;2023-02-18T16:41:10;9.73;;;3.63;;
24273;SDS011;12392;42.678;23.380;2023-02-18T16:43:37;8.98;;;3.58;;
24273;SDS011;12392;42.678;23.380;2023-02-18T16:46:21;6.07;;;3.30;;
24273;SDS011;12392;42.678;23.380;2023-02-18T16:48:48;6.38;;;3.70;;
24273;SDS011;12392;42.678;23.380;2023-02-18T16:51:36;9.30;;;4.18;;
24273;SDS011;12392;42.678;23.380;2023-02-18T16:54:01;8.68;;;3.92;;
24273;SDS011;12392;42.678;23.380;2023-02-18T16:56:28;7.97;;;3.92;;
24273;SDS011;12392;42.678;23.380;2023-02-18T16:58:56;8.25;;;4.45;;
24273;SDS011;12392;42.678;23.380;2023-02-18T17:01:26;7.03;;;4.00;;
24273;SDS011;12392;42.678;23.380;2023-02-18T17:03:56;8.60;;;4.20;;
24273;SDS011;12392;42.678;23.380;2023-02-18T17:06:23;9.57;;;4.30;;
24273;SDS011;12392;42.678;23.380;2023-02-18T17:08:49;9.23;;;4.53;;
24273;SDS011;12392;42.678;23.380;2023-02-18T17:11:16;8.82;;;3.63;;
24273;SDS011;12392;42.678;23.380;2023-02-18T17:13:45;8.45;;;4.13;;
24273;SDS011;12392;42.678;23.380;2023-02-18T17:16:12;9.45;;;3.83;;
24273;SDS011;12392;42.678;23.380;2023-02-18T17:18:38;6.35;;;3.63;;